Time;durP1;ratioP1;P1;durP2;ratioP2;P2;SDS_P1;SDS_P2;PMS_P1;PMS_P2;Temp;Humidity;BMP_temperature;BMP_pressure;BME280_temperature;BME280_humidity;BME280_pressure;Samples;Min_cycle;Max_cycle;Signal;HPM_P1;HPM_P2
2023/11/10 00:01:14;;;;;;;8.13;5.13;;;24.00;67.60;;;;;;5045316;28;20582;-68
2023/11/10 00:03:41;;;;;;;5.17;4.60;;;24.30;68.10;;;;;;5054569;28;20192;-68
2023/11/10 00:06:09;;;;;;;7.03;4.53;;;24.40;67.20;;;;;;5053833;28;20266;-67
2023/11/10 00:08:40;;;;;;;7.10;4.63;;;24.50;66.30;;;;;;5052869;28;20180;-70
2023/11/10 00:11:08;;;;;;;7.27;4.40;;;24.60;66.80;;;;;;5019067;28;20253;-70
2023/11/10 00:13:36;;;;;;;8.93;4.00;;;24.50;66.40;;;;;;5051925;28;20206;-70
2023/11/10 00:16:03;;;;;;;6.03;4.53;;;24.60;66.10;;;;;;5053418;28;20644;-67
2023/11/10 00:18:31;;;;;;;5.33;3.67;;;24.70;66.00;;;;;;5051828;28;20578;-69
2023/11/10 00:20:58;;;;;;;7.23;3.70;;;25.00;66.10;;;;;;5048149;28;20207;-67
2023/11/10 00:23:26;;;;;;;7.10;3.60;;;25.00;65.20;;;;;;5053118;28;20176;-68
2023/11/10 00:25:53;;;;;;;6.33;3.27;;;25.10;64.30;;;;;;5053086;28;20196;-68
2023/11/10 00:28:20;;;;;;;3.20;2.90;;;25.10;64.10;;;;;;5055707;28;20188;-67
2023/11/10 00:30:48;;;;;;;4.80;2.80;;;25.20;64.00;;;;;;5055593;28;20280;-69
2023/11/10 00:33:15;;;;;;;7.27;3.30;;;25.00;63.90;;;;;;5055636;28;20259;-68
2023/11/10 00:35:42;;;;;;;4.50;2.70;;;25.20;63.20;;;;;;5055466;28;20223;-66
2023/11/10 00:38:10;;;;;;;5.07;3.00;;;25.20;63.70;;;;;;5055681;28;20224;-68
2023/11/10 00:40:37;;;;;;;3.93;2.83;;;25.30;63.50;;;;;;5055339;28;20215;-67
2023/11/10 00:43:05;;;;;;;3.67;2.60;;;25.30;62.90;;;;;;5054312;28;20182;-67
2023/11/10 00:45:32;;;;;;;5.40;2.80;;;25.30;63.20;;;;;;5055735;28;20226;-68
2023/11/10 00:48:00;;;;;;;3.63;2.30;;;25.20;64.00;;;;;;5055618;28;20202;-69
2023/11/10 00:50:27;;;;;;;3.43;2.93;;;25.30;64.00;;;;;;5055404;28;20286;-68
2023/11/10 00:52:58;;;;;;;9.77;3.37;;;25.30;63.10;;;;;;5055532;28;20187;-68
2023/11/10 00:55:25;;;;;;;5.00;2.53;;;25.40;63.60;;;;;;5055192;28;20674;-70
2023/11/10 00:57:53;;;;;;;5.27;3.00;;;25.50;63.00;;;;;;5055354;28;20187;-69
2023/11/10 01:00:20;;;;;;;4.93;2.90;;;25.50;63.10;;;;;;5055739;28;20168;-70
2023/11/10 01:02:50;;;;;;;5.60;2.67;;;25.70;63.20;;;;;;5055415;28;20245;-70
2023/11/10 01:05:19;;;;;;;5.67;3.13;;;25.60;63.00;;;;;;5055510;28;20184;-70
2023/11/10 01:07:47;;;;;;;5.03;2.87;;;25.70;62.80;;;;;;5054842;28;20229;-70
2023/11/10 01:10:15;;;;;;;3.97;2.90;;;25.80;62.60;;;;;;5055538;28;20175;-68
2023/11/10 01:12:42;;;;;;;4.97;2.37;;;25.70;62.20;;;;;;5054512;28;20221;-68
2023/11/10 01:15:15;;;;;;;7.50;2.80;;;25.60;62.40;;;;;;5054738;28;20670;-69
2023/11/10 01:17:44;;;;;;;3.90;2.10;;;25.70;63.00;;;;;;5053595;28;20179;-68
2023/11/10 01:20:12;;;;;;;3.67;2.10;;;25.60;63.80;;;;;;5054855;28;20183;-69
2023/11/10 01:22:43;;;;;;;26.43;5.87;;;25.60;63.30;;;;;;5054543;28;20191;-69
2023/11/10 01:25:13;;;;;;;4.50;2.20;;;25.80;64.00;;;;;;5054668;28;20577;-69
2023/11/10 01:27:44;;;;;;;5.13;1.90;;;25.90;64.10;;;;;;5054612;28;20642;-70
2023/11/10 01:30:14;;;;;;;11.73;2.53;;;25.90;65.00;;;;;;5054265;28;20186;-69
2023/11/10 01:32:42;;;;;;;8.97;2.27;;;26.30;63.60;;;;;;5054642;28;20172;-69
2023/11/10 01:35:09;;;;;;;6.70;2.40;;;26.20;62.20;;;;;;5054734;28;20287;-67
2023/11/10 01:37:37;;;;;;;8.03;2.00;;;26.20;61.40;;;;;;5053967;28;20237;-68
2023/11/10 01:40:05;;;;;;;5.47;2.10;;;26.20;60.00;;;;;;5054528;28;20180;-68
2023/11/10 01:42:32;;;;;;;1.60;1.50;;;26.10;60.10;;;;;;5054482;28;20190;-69
2023/11/10 01:45:00;;;;;;;5.67;2.30;;;26.30;57.60;;;;;;5052483;28;20588;-69
2023/11/10 01:47:27;;;;;;;2.97;1.83;;;26.60;59.00;;;;;;5054276;28;20199;-70
2023/11/10 01:49:55;;;;;;;2.57;1.30;;;26.30;59.90;;;;;;5052834;28;20180;-68
2023/11/10 01:52:22;;;;;;;2.63;1.40;;;26.00;58.60;;;;;;5054131;28;20178;-68
2023/11/10 01:54:50;;;;;;;1.63;1.33;;;25.80;59.30;;;;;;5053879;28;20642;-71
2023/11/10 01:57:17;;;;;;;8.60;2.20;;;25.90;59.80;;;;;;5054233;28;20251;-70
2023/11/10 01:59:47;;;;;;;11.00;2.20;;;25.60;58.50;;;;;;5053905;28;20221;-68
2023/11/10 02:02:14;;;;;;;3.33;1.50;;;25.50;60.90;;;;;;5054539;28;20271;-70
2023/11/10 02:04:42;;;;;;;4.67;1.57;;;25.50;62.70;;;;;;5053742;28;20176;-72
2023/11/10 02:07:09;;;;;;;4.97;1.87;;;25.90;63.10;;;;;;5053906;28;20678;-69
2023/11/10 02:09:37;;;;;;;3.17;1.47;;;26.00;63.10;;;;;;5053803;28;20171;-70
2023/11/10 02:12:04;;;;;;;6.07;1.47;;;25.70;63.40;;;;;;5054155;28;20180;-69
2023/11/10 02:14:32;;;;;;;3.77;1.30;;;25.70;63.50;;;;;;5053925;28;20212;-70
2023/11/10 02:17:00;;;;;;;6.50;1.47;;;25.90;62.90;;;;;;5053816;28;20220;-71
2023/11/10 02:19:27;;;;;;;7.33;1.73;;;26.00;63.70;;;;;;5053904;28;20506;-69
2023/11/10 02:21:54;;;;;;;8.63;1.60;;;26.30;63.30;;;;;;5052678;28;20187;-69
2023/11/10 02:24:23;;;;;;;9.23;1.83;;;26.00;63.50;;;;;;5053292;28;20179;-69
2023/11/10 02:26:50;;;;;;;16.17;4.43;;;25.80;65.50;;;;;;5051175;28;20329;-70
2023/11/10 02:29:18;;;;;;;10.40;2.43;;;26.20;65.80;;;;;;5053482;28;20195;-68
2023/11/10 02:31:45;;;;;;;21.23;4.43;;;26.40;64.60;;;;;;5053203;28;20255;-69
2023/11/10 02:34:12;;;;;;;9.97;2.80;;;26.20;65.70;;;;;;5053668;28;20180;-70
2023/11/10 02:36:40;;;;;;;14.13;2.57;;;26.70;63.80;;;;;;5053437;28;20208;-70
2023/11/10 02:39:07;;;;;;;10.20;2.43;;;26.80;63.60;;;;;;5053351;28;20249;-71
2023/11/10 02:41:34;;;;;;;10.37;2.37;;;26.80;62.00;;;;;;5053241;28;20190;-68
2023/11/10 02:44:02;;;;;;;8.37;2.23;;;26.30;64.00;;;;;;5053214;28;20226;-68
2023/11/10 02:46:29;;;;;;;7.63;2.10;;;26.40;63.90;;;;;;5053242;28;20172;-68
2023/11/10 02:48:58;;;;;;;6.30;1.73;;;26.40;63.90;;;;;;5053625;28;20186;-69
2023/11/10 02:51:25;;;;;;;14.90;2.50;;;26.50;62.50;;;;;;5053108;28;20184;-67
2023/11/10 02:53:53;;;;;;;9.50;2.13;;;25.90;64.00;;;;;;5052633;28;20176;-69
2023/11/10 02:56:21;;;;;;;7.27;1.90;;;25.90;64.70;;;;;;5053019;28;20195;-67
2023/11/10 02:58:48;;;;;;;9.13;2.00;;;25.90;64.30;;;;;;5052982;28;20440;-68
2023/11/10 03:01:21;;;;;;;11.13;2.83;;;25.80;63.20;;;;;;5053117;28;20175;-68
2023/11/10 03:03:49;;;;;;;7.60;2.50;;;25.80;65.00;;;;;;5052712;28;20184;-68
2023/11/10 03:06:16;;;;;;;10.20;2.10;;;26.30;63.60;;;;;;5052477;28;20180;-70
2023/11/10 03:08:44;;;;;;;11.60;2.87;;;26.00;64.50;;;;;;5053154;28;20174;-68
2023/11/10 03:11:11;;;;;;;10.83;2.40;;;25.90;64.10;;;;;;5052811;28;20179;-67
2023/11/10 03:13:42;;;;;;;7.77;2.00;;;26.00;64.00;;;;;;5049477;28;20630;-67
2023/11/10 03:16:09;;;;;;;8.20;1.73;;;26.10;63.50;;;;;;5049845;28;20302;-69
2023/11/10 03:18:36;;;;;;;9.47;2.17;;;26.40;62.10;;;;;;5052398;28;20172;-70
2023/11/10 03:21:05;;;;;;;9.70;2.00;;;26.60;61.50;;;;;;5052870;28;20168;-69
2023/11/10 03:23:36;;;;;;;10.40;1.63;;;26.60;61.30;;;;;;5052779;28;20662;-69
2023/11/10 03:26:03;;;;;;;10.17;2.07;;;26.40;61.60;;;;;;5053415;28;20610;-69
2023/11/10 03:28:30;;;;;;;9.07;2.27;;;26.20;63.10;;;;;;5052490;28;20259;-69
2023/11/10 03:30:58;;;;;;;9.53;2.10;;;26.20;62.60;;;;;;5052327;28;20184;-69
2023/11/10 03:33:26;;;;;;;12.70;2.60;;;26.10;63.70;;;;;;5051423;28;20171;-68
2023/11/10 03:35:53;;;;;;;16.03;2.80;;;25.90;63.80;;;;;;5052143;28;20199;-70
2023/11/10 03:38:21;;;;;;;15.30;2.57;;;25.90;64.90;;;;;;5052517;28;20232;-67
2023/11/10 03:40:49;;;;;;;10.43;2.40;;;26.20;64.00;;;;;;5052628;28;20266;-70
2023/11/10 03:43:16;;;;;;;8.20;2.17;;;26.40;61.70;;;;;;5052872;28;20176;-69
2023/11/10 03:45:44;;;;;;;13.93;2.13;;;26.60;61.10;;;;;;5052213;28;20167;-68
2023/11/10 03:48:11;;;;;;;12.23;2.47;;;26.60;60.30;;;;;;5052675;28;20572;-69
2023/11/10 03:50:39;;;;;;;10.67;2.50;;;26.40;59.70;;;;;;5052432;28;20168;-68
2023/11/10 03:53:07;;;;;;;7.53;2.03;;;26.80;58.70;;;;;;5052281;28;20188;-69
2023/11/10 03:55:34;;;;;;;14.87;2.87;;;27.10;57.80;;;;;;5052158;28;20249;-67
2023/11/10 03:58:02;;;;;;;9.30;2.10;;;27.00;57.90;;;;;;5052289;28;20653;-69
2023/11/10 04:00:30;;;;;;;6.90;1.77;;;26.80;57.90;;;;;;5052391;28;20183;-70
2023/11/10 04:02:57;;;;;;;9.93;2.07;;;26.80;58.10;;;;;;5050887;28;20184;-67
2023/11/10 04:05:24;;;;;;;12.03;2.30;;;27.40;56.50;;;;;;5049608;28;20213;-70
2023/11/10 04:07:52;;;;;;;12.57;2.13;;;27.30;57.30;;;;;;5049749;28;20183;-68
2023/11/10 04:10:21;;;;;;;14.80;3.00;;;27.10;58.10;;;;;;5049844;28;20267;-68
2023/11/10 04:12:49;;;;;;;10.17;2.37;;;27.50;57.60;;;;;;5050341;28;20567;-69
2023/11/10 04:15:16;;;;;;;13.60;2.47;;;27.70;56.70;;;;;;5049686;28;20218;-70
2023/11/10 04:17:43;;;;;;;17.20;3.10;;;27.60;57.10;;;;;;5050169;28;20171;-68
2023/11/10 04:20:11;;;;;;;12.53;2.77;;;27.40;57.40;;;;;;5051850;28;20225;-70
2023/11/10 04:22:41;;;;;;;10.87;2.67;;;27.00;57.80;;;;;;5051318;28;20179;-70
2023/11/10 04:25:09;;;;;;;10.43;2.87;;;27.30;55.70;;;;;;5051946;28;20180;-69
2023/11/10 04:27:39;;;;;;;10.90;3.03;;;27.70;55.80;;;;;;5047326;28;20479;-69
2023/11/10 04:30:08;;;;;;;12.17;2.60;;;27.90;55.70;;;;;;5046025;28;20582;-69
2023/11/10 04:32:36;;;;;;;9.47;2.03;;;27.40;54.80;;;;;;5049258;28;20535;-69
2023/11/10 04:35:04;;;;;;;9.37;2.20;;;27.30;53.40;;;;;;5049821;28;20187;-68
2023/11/10 04:37:32;;;;;;;11.63;2.37;;;27.10;54.30;;;;;;5047924;28;20368;-70
2023/11/10 04:40:00;;;;;;;10.10;2.20;;;26.90;54.60;;;;;;5040269;28;20195;-70
2023/11/10 04:42:28;;;;;;;14.93;2.87;;;27.10;55.60;;;;;;5051588;28;20169;-68
2023/11/10 04:44:58;;;;;;;16.23;2.33;;;27.50;54.60;;;;;;5050063;28;20650;-69
2023/11/10 04:47:26;;;;;;;16.60;2.63;;;27.40;55.30;;;;;;5049104;28;20646;-70
2023/11/10 04:49:53;;;;;;;18.13;2.47;;;27.00;57.10;;;;;;5048410;28;20623;-67
2023/11/10 04:52:20;;;;;;;17.03;2.60;;;27.00;57.80;;;;;;5051283;28;20230;-68
2023/11/10 04:54:48;;;;;;;17.10;3.13;;;27.40;56.90;;;;;;5047217;28;20188;-70
2023/11/10 04:57:17;;;;;;;15.13;3.17;;;27.30;57.70;;;;;;5054787;28;20212;-69
2023/11/10 04:59:48;;;;;;;14.97;3.67;;;27.30;58.90;;;;;;5051867;28;20176;-69
2023/11/10 05:02:15;;;;;;;23.93;4.13;;;27.70;58.70;;;;;;5054166;28;20191;-70
2023/11/10 05:04:44;;;;;;;14.90;3.47;;;27.30;61.10;;;;;;5051880;28;20184;-66
2023/11/10 05:07:13;;;;;;;16.90;3.77;;;27.80;60.10;;;;;;5052034;28;20656;-70
2023/11/10 05:09:40;;;;;;;14.30;2.80;;;27.50;60.40;;;;;;5050792;28;20183;-70
2023/11/10 05:12:08;;;;;;;15.57;3.00;;;27.30;60.50;;;;;;5053132;28;20589;-70
2023/11/10 05:14:39;;;;;;;19.37;3.07;;;26.80;62.10;;;;;;5052771;28;20188;-69
2023/11/10 05:17:07;;;;;;;15.53;3.10;;;26.60;62.30;;;;;;5052673;28;20799;-68
2023/11/10 05:19:34;;;;;;;16.90;3.53;;;26.30;63.80;;;;;;5044772;28;20582;-70
2023/11/10 05:22:02;;;;;;;16.73;3.07;;;27.00;62.40;;;;;;5052732;28;20184;-71
2023/11/10 05:24:30;;;;;;;18.57;3.47;;;26.90;61.80;;;;;;5053624;28;20259;-68
2023/11/10 05:26:59;;;;;;;12.47;2.70;;;27.10;61.00;;;;;;5053275;28;20180;-70
2023/11/10 05:29:26;;;;;;;11.87;2.93;;;26.50;63.10;;;;;;5050635;28;20223;-68
2023/11/10 05:31:57;;;;;;;12.03;2.63;;;26.70;62.00;;;;;;5051828;28;20195;-67
2023/11/10 05:34:24;;;;;;;12.77;2.73;;;27.00;61.20;;;;;;5055235;28;20302;-70
2023/11/10 05:36:51;;;;;;;10.93;2.17;;;26.80;60.90;;;;;;5074176;28;20783;-70
2023/11/10 05:39:18;;;;;;;11.93;2.27;;;26.90;59.60;;;;;;5073632;28;20301;-69
2023/11/10 05:41:46;;;;;;;11.90;2.50;;;27.20;58.90;;;;;;5049557;28;20232;-69
2023/11/10 05:44:13;;;;;;;9.93;2.63;;;27.20;59.40;;;;;;5049540;28;20654;-71
2023/11/10 05:46:40;;;;;;;17.67;3.03;;;26.90;60.40;;;;;;5050989;28;20183;-69
2023/11/10 05:49:08;;;;;;;13.83;3.00;;;26.60;62.00;;;;;;5059949;28;20261;-69
2023/11/10 05:51:35;;;;;;;12.50;2.40;;;26.70;61.70;;;;;;5055971;28;20198;-68
2023/11/10 05:54:02;;;;;;;11.70;2.70;;;27.10;61.00;;;;;;5040139;28;20234;-69
2023/11/10 05:56:30;;;;;;;15.57;3.50;;;26.30;62.30;;;;;;5062732;28;20217;-68
2023/11/10 05:58:58;;;;;;;10.97;2.80;;;26.80;60.80;;;;;;5052732;28;20179;-67
2023/11/10 06:01:25;;;;;;;13.50;2.77;;;25.30;65.00;;;;;;5058386;28;20172;-69
2023/11/10 06:03:53;;;;;;;14.27;3.10;;;24.70;67.40;;;;;;5055818;28;20191;-70
2023/11/10 06:06:24;;;;;;;13.83;2.70;;;24.60;68.10;;;;;;5070070;28;20176;-71
2023/11/10 06:08:52;;;;;;;16.47;3.63;;;25.30;65.90;;;;;;5058406;28;20184;-68
2023/11/10 06:11:24;;;;;;;21.63;3.80;;;25.90;64.80;;;;;;5045542;28;20175;-68
2023/11/10 06:13:53;;;;;;;11.57;3.07;;;26.40;62.50;;;;;;5049238;28;20241;-68
2023/11/10 06:16:21;;;;;;;10.93;3.23;;;27.00;61.40;;;;;;5059495;28;20199;-68
2023/11/10 06:18:48;;;;;;;17.70;2.90;;;27.40;58.90;;;;;;5062059;28;20194;-68
2023/11/10 06:21:21;;;;;;;16.60;3.20;;;27.30;60.20;;;;;;5058374;28;20172;-67
2023/11/10 06:23:49;;;;;;;20.40;3.90;;;27.40;59.90;;;;;;5063504;28;20192;-68
2023/11/10 06:26:23;;;;;;;18.33;3.13;;;27.40;60.60;;;;;;5054460;28;20654;-69
2023/11/10 06:28:51;;;;;;;22.10;3.80;;;26.80;62.30;;;;;;5040740;28;20550;-68
2023/11/10 06:31:23;;;;;;;21.73;4.90;;;26.60;62.10;;;;;;5062435;28;20179;-69
2023/11/10 06:33:50;;;;;;;18.90;3.87;;;26.70;63.00;;;;;;5061586;28;20183;-69
2023/11/10 06:36:21;;;;;;;20.50;4.30;;;26.90;62.30;;;;;;5054933;28;20681;-66
2023/11/10 06:38:48;;;;;;;25.23;4.17;;;26.70;62.40;;;;;;5048062;28;20230;-66
2023/11/10 06:41:16;;;;;;;16.23;3.67;;;27.60;59.80;;;;;;5037904;28;20269;-67
2023/11/10 06:43:47;;;;;;;21.60;4.30;;;28.10;58.60;;;;;;5066174;28;20226;-67
2023/11/10 06:46:26;;;;;;;16.77;3.93;;;27.10;62.80;;;;;;5048820;28;20180;-68
2023/11/10 06:48:55;;;;;;;19.63;4.27;;;26.70;62.10;;;;;;5050258;28;20260;-67
2023/11/10 06:51:22;;;;;;;18.67;4.20;;;25.90;65.00;;;;;;5060159;28;20188;-68
2023/11/10 06:53:50;;;;;;;22.53;4.10;;;25.80;66.40;;;;;;5048752;28;20186;-69
2023/11/10 06:56:17;;;;;;;21.77;4.07;;;26.00;65.50;;;;;;5053803;28;20570;-69
2023/11/10 06:58:45;;;;;;;16.63;3.97;;;26.20;65.00;;;;;;5062448;28;20460;-68
2023/11/10 07:01:12;;;;;;;15.37;4.10;;;26.20;64.30;;;;;;5071938;28;20205;-68
2023/11/10 07:03:42;;;;;;;19.40;3.90;;;26.30;63.90;;;;;;5059166;28;20650;-67
2023/11/10 07:06:09;;;;;;;16.17;3.67;;;26.00;65.40;;;;;;5062984;28;20179;-67
2023/11/10 07:08:39;;;;;;;14.47;3.90;;;25.30;66.50;;;;;;5050497;28;20540;-68
2023/11/10 07:11:07;;;;;;;18.30;4.33;;;25.20;67.80;;;;;;5061600;28;20172;-68
2023/11/10 07:13:36;;;;;;;20.93;4.30;;;24.80;69.00;;;;;;5066561;28;20192;-68
2023/11/10 07:16:04;;;;;;;18.40;4.10;;;24.50;70.30;;;;;;5053392;28;20300;-68
2023/11/10 07:18:32;;;;;;;14.60;3.40;;;24.80;69.40;;;;;;5052126;28;20192;-67
2023/11/10 07:21:00;;;;;;;19.47;4.43;;;24.30;71.00;;;;;;5048749;28;20192;-67
2023/11/10 07:23:27;;;;;;;16.10;4.10;;;23.60;73.40;;;;;;5054478;28;20167;-70
2023/11/10 07:25:55;;;;;;;16.77;3.47;;;23.30;75.10;;;;;;5070000;28;20261;-67
2023/11/10 07:28:22;;;;;;;25.33;4.40;;;23.10;76.20;;;;;;5058892;28;20176;-68
2023/11/10 07:30:49;;;;;;;19.97;4.07;;;22.90;76.70;;;;;;5047453;28;20553;-70
2023/11/10 07:33:17;;;;;;;24.63;4.00;;;23.00;76.70;;;;;;5048803;28;20192;-68
2023/11/10 07:35:44;;;;;;;39.83;12.23;;;22.90;77.20;;;;;;5052856;28;20203;-70
2023/11/10 07:38:11;;;;;;;50.17;17.53;;;22.80;77.90;;;;;;5059685;28;20238;-67
2023/11/10 07:40:40;;;;;;;32.57;7.37;;;22.70;78.20;;;;;;5048710;28;20642;-69
2023/11/10 07:43:08;;;;;;;26.10;6.57;;;22.50;79.00;;;;;;5050784;28;20275;-68
2023/11/10 07:45:36;;;;;;;26.47;5.57;;;22.50;79.20;;;;;;5050584;28;20600;-69
2023/11/10 07:48:04;;;;;;;27.70;5.93;;;22.30;79.90;;;;;;5049595;28;20668;-69
2023/11/10 07:50:31;;;;;;;24.97;4.90;;;22.30;79.70;;;;;;5043866;28;20242;-68
2023/11/10 07:52:59;;;;;;;33.07;5.57;;;22.30;80.00;;;;;;5057382;28;20180;-68
2023/11/10 07:55:27;;;;;;;28.77;6.37;;;22.30;80.60;;;;;;5049942;28;20207;-67
2023/11/10 07:57:55;;;;;;;28.77;5.43;;;22.20;80.30;;;;;;5062698;28;20218;-69
2023/11/10 08:00:22;;;;;;;24.97;5.60;;;22.10;81.00;;;;;;5046119;28;20669;-67
2023/11/10 08:02:52;;;;;;;24.00;5.03;;;22.10;81.40;;;;;;5052745;28;20237;-67
2023/11/10 08:05:23;;;;;;;27.73;5.20;;;22.00;81.80;;;;;;5051886;28;20202;-67
2023/11/10 08:07:52;;;;;;;29.03;5.83;;;22.00;82.00;;;;;;5054840;28;20262;-68
2023/11/10 08:10:20;;;;;;;23.67;5.03;;;22.00;82.00;;;;;;5044552;28;20180;-70
2023/11/10 08:12:49;;;;;;;29.63;5.47;;;21.80;82.00;;;;;;5053843;28;20230;-67
2023/11/10 08:15:16;;;;;;;30.30;5.80;;;21.90;82.30;;;;;;5049780;28;20915;-68
2023/11/10 08:17:43;;;;;;;25.93;5.27;;;21.90;82.00;;;;;;5049243;28;20199;-69
2023/11/10 08:20:11;;;;;;;30.93;6.40;;;22.00;82.30;;;;;;5047575;28;20665;-68
2023/11/10 08:22:38;;;;;;;28.83;5.77;;;21.90;81.80;;;;;;5047511;28;20306;-70
2023/11/10 08:25:11;;;;;;;25.60;5.07;;;21.90;81.90;;;;;;5053822;28;20172;-68
2023/11/10 08:27:39;;;;;;;26.13;5.90;;;21.90;82.60;;;;;;5053599;28;20202;-69
2023/11/10 08:30:11;;;;;;;32.33;5.70;;;21.90;82.90;;;;;;5054746;28;20192;-68
2023/11/10 08:32:39;;;;;;;26.33;5.87;;;21.80;82.90;;;;;;5054486;28;22302;-67
2023/11/10 08:35:08;;;;;;;28.00;6.00;;;21.80;82.90;;;;;;5055106;28;20194;-66
2023/11/10 08:37:35;;;;;;;25.73;6.00;;;21.80;83.00;;;;;;5054511;28;20223;-69
2023/11/10 08:40:05;;;;;;;25.67;4.97;;;21.70;82.80;;;;;;5055705;28;20274;-68
2023/11/10 08:42:33;;;;;;;29.13;5.17;;;21.60;83.30;;;;;;5049461;28;20267;-68
2023/11/10 08:45:00;;;;;;;30.57;5.40;;;21.50;83.80;;;;;;5053949;28;20180;-67
2023/11/10 08:47:27;;;;;;;33.07;6.17;;;21.50;83.90;;;;;;5054321;28;20190;-68
2023/11/10 08:49:55;;;;;;;18.23;4.67;;;21.50;84.20;;;;;;5054792;28;20261;-66
2023/11/10 08:52:24;;;;;;;27.30;5.30;;;21.50;84.20;;;;;;5061019;28;20266;-68
2023/11/10 08:54:55;;;;;;;25.10;4.73;;;21.50;84.30;;;;;;5066552;28;20536;-68
2023/11/10 08:57:22;;;;;;;27.83;5.27;;;21.50;84.40;;;;;;5072913;28;20263;-67
2023/11/10 08:59:49;;;;;;;25.47;5.53;;;21.40;84.70;;;;;;5064014;28;20183;-67
2023/11/10 09:02:18;;;;;;;30.23;5.70;;;21.50;85.00;;;;;;5061664;28;20190;-68
2023/11/10 09:04:48;;;;;;;27.17;5.27;;;21.50;84.90;;;;;;5074836;28;20541;-67
2023/11/10 09:07:16;;;;;;;28.27;5.00;;;21.50;84.80;;;;;;5075537;28;20638;-67
2023/11/10 09:09:43;;;;;;;27.50;6.27;;;21.50;84.90;;;;;;5072580;28;20184;-68
2023/11/10 09:12:10;;;;;;;29.23;5.13;;;21.40;84.80;;;;;;5066712;28;20183;-68
2023/11/10 09:14:38;;;;;;;22.53;5.37;;;21.40;84.90;;;;;;5063755;28;20223;-68
2023/11/10 09:17:05;;;;;;;23.20;5.17;;;21.40;84.90;;;;;;5057904;28;20226;-67
2023/11/10 09:19:33;;;;;;;28.37;5.63;;;21.40;85.00;;;;;;5055396;28;20260;-68
2023/11/10 09:22:00;;;;;;;30.63;5.60;;;21.30;85.00;;;;;;5061713;28;20179;-67
2023/11/10 09:24:27;;;;;;;34.63;5.83;;;21.40;84.80;;;;;;5056685;28;20188;-67
2023/11/10 09:26:59;;;;;;;25.20;5.33;;;21.30;85.00;;;;;;5065384;28;20201;-68
2023/11/10 09:29:27;;;;;;;26.93;4.50;;;21.30;85.20;;;;;;5058058;28;20215;-68
2023/11/10 09:31:56;;;;;;;30.53;6.07;;;21.30;85.30;;;;;;5048254;28;20191;-69
2023/11/10 09:34:25;;;;;;;21.43;4.70;;;21.30;85.00;;;;;;5052367;28;20180;-68
2023/11/10 09:36:55;;;;;;;22.60;4.80;;;21.30;85.00;;;;;;5054046;28;20240;-67
2023/11/10 09:39:24;;;;;;;23.77;5.50;;;21.30;85.10;;;;;;5060556;28;20589;-67
2023/11/10 09:41:56;;;;;;;31.10;6.20;;;21.30;84.80;;;;;;5061996;28;20660;-69
2023/11/10 09:44:24;;;;;;;26.43;5.60;;;21.30;84.80;;;;;;5063256;28;20218;-68
2023/11/10 09:46:51;;;;;;;24.63;5.37;;;21.20;84.70;;;;;;5063701;28;20172;-68
2023/11/10 09:49:19;;;;;;;21.33;5.60;;;21.20;84.70;;;;;;5062943;28;20211;-68
2023/11/10 09:51:49;;;;;;;31.10;12.57;;;21.20;84.50;;;;;;5070956;28;20262;-66
2023/11/10 09:54:18;;;;;;;40.17;21.57;;;21.20;84.40;;;;;;5049467;28;20318;-67
2023/11/10 09:56:47;;;;;;;37.60;18.10;;;21.10;84.50;;;;;;5042085;28;20239;-67
2023/11/10 09:59:15;;;;;;;39.70;13.90;;;21.00;84.50;;;;;;5065738;28;20261;-68
2023/11/10 10:01:44;;;;;;;31.53;9.87;;;21.00;84.50;;;;;;5070057;28;20608;-67
2023/11/10 10:04:11;;;;;;;26.17;7.30;;;20.90;84.20;;;;;;5058241;28;20191;-69
2023/11/10 10:06:39;;;;;;;25.47;6.43;;;20.90;83.90;;;;;;5057916;28;20195;-69
2023/11/10 10:09:09;;;;;;;26.43;6.37;;;20.90;84.00;;;;;;5059041;28;20188;-69
2023/11/10 10:11:36;;;;;;;32.23;7.30;;;20.90;84.00;;;;;;5051814;28;20249;-69
2023/11/10 10:14:04;;;;;;;23.90;6.10;;;20.80;83.90;;;;;;5054420;28;20183;-69
2023/11/10 10:16:31;;;;;;;22.53;5.60;;;20.80;83.90;;;;;;5056258;28;20199;-68
2023/11/10 10:18:59;;;;;;;28.23;5.87;;;20.80;84.00;;;;;;5055262;28;20306;-67
2023/11/10 10:21:26;;;;;;;16.03;5.00;;;20.80;83.90;;;;;;5073797;28;20191;-68
2023/11/10 10:23:54;;;;;;;30.80;6.30;;;20.80;84.30;;;;;;5069185;28;20175;-68
2023/11/10 10:26:21;;;;;;;29.40;6.10;;;20.80;84.50;;;;;;5051017;28;20235;-68
2023/11/10 10:28:49;;;;;;;28.67;4.77;;;20.70;84.50;;;;;;5065462;28;20194;-68
2023/11/10 10:31:17;;;;;;;24.37;5.00;;;20.70;84.80;;;;;;5050729;28;20195;-69
2023/11/10 10:33:44;;;;;;;28.27;5.53;;;20.60;85.00;;;;;;5062361;28;20196;-69
2023/11/10 10:36:13;;;;;;;26.03;5.03;;;20.60;85.20;;;;;;5060821;28;20228;-68
2023/11/10 10:38:44;;;;;;;35.63;5.67;;;20.50;85.50;;;;;;5061128;28;20255;-68
2023/11/10 10:41:16;;;;;;;32.53;5.47;;;20.50;85.60;;;;;;5061758;28;20180;-67
2023/11/10 10:43:44;;;;;;;23.77;5.27;;;20.50;85.80;;;;;;5051987;28;20333;-68
2023/11/10 10:46:12;;;;;;;23.93;5.10;;;20.50;86.00;;;;;;5052919;28;20184;-70
2023/11/10 10:48:40;;;;;;;26.10;5.33;;;20.40;86.10;;;;;;5065519;28;20199;-67
2023/11/10 10:51:08;;;;;;;28.50;4.70;;;20.40;86.10;;;;;;5056708;28;20188;-68
2023/11/10 10:53:36;;;;;;;22.40;4.93;;;20.40;86.40;;;;;;5058382;28;20191;-68
2023/11/10 10:56:05;;;;;;;28.07;5.67;;;20.40;86.40;;;;;;5061028;28;20210;-68
2023/11/10 10:58:36;;;;;;;24.80;5.17;;;20.40;86.70;;;;;;5059726;28;20276;-69
2023/11/10 11:01:05;;;;;;;24.70;5.50;;;20.40;86.40;;;;;;5060673;28;20186;-68
2023/11/10 11:13:52;;;;;;;22.57;4.87;;;20.30;86.70;;;;;;5032059;28;20708;-71
2023/11/10 11:16:49;;;;;;;19.90;4.70;;;20.30;86.80;;;;;;5051335;28;20208;-70
2023/11/10 11:19:28;;;;;;;17.40;4.70;;;20.30;87.00;;;;;;5048573;28;20248;-70
2023/11/10 11:21:56;;;;;;;25.87;5.90;;;20.20;87.20;;;;;;5064696;28;20618;-70
2023/11/10 11:24:26;;;;;;;19.33;5.03;;;20.20;87.30;;;;;;5051855;28;20223;-71
2023/11/10 11:27:00;;;;;;;21.53;5.00;;;20.20;87.60;;;;;;5040675;28;20206;-70
2023/11/10 11:29:36;;;;;;;18.63;4.67;;;20.20;87.70;;;;;;5051943;28;20233;-70
2023/11/10 11:32:07;;;;;;;22.10;5.43;;;20.20;87.80;;;;;;5051095;28;20207;-71
2023/11/10 11:34:36;;;;;;;29.17;5.60;;;20.20;87.70;;;;;;5045579;28;20199;-71
2023/11/10 11:37:07;;;;;;;18.07;4.97;;;20.20;87.70;;;;;;5049706;28;20258;-71
2023/11/10 11:39:35;;;;;;;23.07;5.50;;;20.20;87.90;;;;;;5059631;28;20194;-71
2023/11/10 11:42:06;;;;;;;18.13;5.27;;;20.10;87.80;;;;;;5051683;28;20179;-71
2023/11/10 11:44:35;;;;;;;21.30;5.27;;;20.10;87.90;;;;;;5046806;28;20252;-71
2023/11/10 11:47:07;;;;;;;21.97;5.00;;;20.10;87.90;;;;;;5044178;28;20279;-71
2023/11/10 11:49:36;;;;;;;19.03;5.00;;;20.10;88.00;;;;;;5046514;28;20198;-71
2023/11/10 11:52:12;;;;;;;21.73;4.30;;;20.10;87.90;;;;;;5051419;28;20543;-71
2023/11/10 11:54:40;;;;;;;20.00;5.47;;;20.10;87.70;;;;;;5050184;28;20267;-71
2023/11/10 11:57:07;;;;;;;21.83;5.40;;;20.00;87.60;;;;;;5051068;28;20273;-71
2023/11/10 11:59:35;;;;;;;16.00;5.70;;;20.00;87.70;;;;;;5055468;28;20202;-71
2023/11/10 12:02:04;;;;;;;21.33;5.83;;;20.00;87.90;;;;;;5053911;28;20180;-71
2023/11/10 12:04:31;;;;;;;22.83;6.23;;;19.90;88.20;;;;;;5054292;28;20172;-71
2023/11/10 12:06:59;;;;;;;17.37;5.37;;;19.90;88.20;;;;;;5056155;28;20176;-70
2023/11/10 12:09:26;;;;;;;14.77;5.43;;;19.90;88.30;;;;;;5055800;28;20618;-71
2023/11/10 12:11:53;;;;;;;28.77;6.63;;;19.90;88.40;;;;;;5051555;28;20237;-71
2023/11/10 12:14:24;;;;;;;17.60;5.30;;;20.00;88.50;;;;;;5055362;28;20180;-71
2023/11/10 12:16:52;;;;;;;15.60;5.90;;;19.90;88.20;;;;;;5055690;28;20215;-70
2023/11/10 12:19:23;;;;;;;18.60;5.93;;;19.90;88.30;;;;;;5068420;28;20219;-71
2023/11/10 12:21:50;;;;;;;15.87;5.80;;;19.90;88.10;;;;;;5072196;28;20217;-71
2023/11/10 12:24:22;;;;;;;14.60;5.53;;;19.80;88.00;;;;;;5063333;28;20183;-71
2023/11/10 12:26:51;;;;;;;15.47;5.53;;;19.80;88.10;;;;;;5073282;28;20194;-71
2023/11/10 12:29:26;;;;;;;17.73;6.07;;;19.70;88.20;;;;;;5075715;28;20301;-71
2023/11/10 12:31:54;;;;;;;16.77;6.47;;;19.70;88.50;;;;;;5066624;28;20243;-71
2023/11/10 12:34:23;;;;;;;21.03;6.20;;;19.80;88.60;;;;;;5051849;28;20183;-71
2023/11/10 12:36:51;;;;;;;15.30;5.40;;;19.80;88.50;;;;;;5052784;28;20284;-71
2023/11/10 12:39:19;;;;;;;23.80;9.00;;;19.70;88.50;;;;;;5066003;28;20223;-71
2023/11/10 12:41:47;;;;;;;14.30;7.37;;;19.80;88.60;;;;;;5071038;28;20172;-71
2023/11/10 12:44:16;;;;;;;13.03;6.00;;;19.80;88.50;;;;;;5054684;28;20245;-71
2023/11/10 12:47:09;;;;;;;16.07;5.20;;;19.70;88.40;;;;;;5068973;28;20191;-71
2023/11/10 12:49:36;;;;;;;14.83;6.80;;;19.70;88.20;;;;;;5054276;28;20183;-71
2023/11/10 12:52:09;;;;;;;13.63;5.77;;;19.70;88.30;;;;;;5065305;28;20184;-71
2023/11/10 12:54:44;;;;;;;12.67;5.27;;;19.70;88.50;;;;;;5063673;28;20234;-71